Time;durP1;ratioP1;P1;durP2;ratioP2;P2;SDS_P1;SDS_P2;PMS_P1;PMS_P2;Temp;Humidity;BMP_temperature;BMP_pressure;BME280_temperature;BME280_humidity;BME280_pressure;Samples;Min_cycle;Max_cycle;Signal;HPM_P1;HPM_P2
2023/04/14 00:01:38;;;;;;;10.90;5.80;;;11.20;99.90;;;;;;5033368;28;20492;-62
2023/04/14 00:04:06;;;;;;;10.07;6.60;;;11.20;99.90;;;;;;5034130;28;20472;-62
2023/04/14 00:06:33;;;;;;;11.07;6.80;;;11.20;99.90;;;;;;5034241;28;20454;-62
2023/04/14 00:09:00;;;;;;;12.00;6.97;;;11.20;99.90;;;;;;5034792;28;20581;-63
2023/04/14 00:11:27;;;;;;;8.50;6.90;;;11.20;99.90;;;;;;5034505;28;20441;-64
2023/04/14 00:13:55;;;;;;;10.70;6.53;;;11.30;99.90;;;;;;5034111;28;20480;-63
2023/04/14 00:16:22;;;;;;;12.30;7.23;;;11.30;99.90;;;;;;5034359;28;20517;-63
2023/04/14 00:18:49;;;;;;;13.70;7.57;;;11.30;99.90;;;;;;5034037;28;20503;-64
2023/04/14 00:21:17;;;;;;;10.40;6.80;;;11.30;99.90;;;;;;5034296;28;20444;-63
2023/04/14 00:23:44;;;;;;;9.77;6.00;;;11.30;99.90;;;;;;5034165;28;20449;-60
2023/04/14 00:26:11;;;;;;;9.40;5.87;;;11.30;99.90;;;;;;5033620;28;20441;-62
2023/04/14 00:28:38;;;;;;;13.17;5.37;;;11.30;99.90;;;;;;5033405;28;20468;-62
2023/04/14 00:31:05;;;;;;;11.60;6.00;;;11.30;99.90;;;;;;5033864;28;20476;-64
2023/04/14 00:33:32;;;;;;;12.10;6.30;;;11.30;99.90;;;;;;5034823;28;20456;-62
2023/04/14 00:35:59;;;;;;;8.23;5.00;;;11.20;99.90;;;;;;5034387;28;20484;-61
2023/04/14 00:38:27;;;;;;;7.60;5.70;;;11.30;99.90;;;;;;5034249;28;20468;-63
2023/04/14 00:40:54;;;;;;;9.40;5.10;;;11.20;99.90;;;;;;5033296;28;20456;-61
2023/04/14 00:43:21;;;;;;;6.60;4.20;;;11.30;99.90;;;;;;5034217;28;20524;-61
2023/04/14 00:45:50;;;;;;;6.60;4.80;;;11.30;99.90;;;;;;5033397;28;20469;-62
2023/04/14 00:48:19;;;;;;;6.53;4.27;;;11.30;99.90;;;;;;5034031;28;20477;-61
2023/04/14 00:50:46;;;;;;;8.13;5.07;;;11.30;99.90;;;;;;5032604;28;20461;-62
2023/04/14 00:53:14;;;;;;;8.27;6.00;;;11.30;99.90;;;;;;5033323;28;20497;-62
2023/04/14 00:55:43;;;;;;;8.10;4.80;;;11.30;99.90;;;;;;5033901;28;20445;-63
2023/04/14 00:58:10;;;;;;;8.90;4.60;;;11.30;99.90;;;;;;5034049;28;20465;-63
2023/04/14 01:00:38;;;;;;;7.60;5.30;;;11.30;99.90;;;;;;5034119;28;20456;-63
2023/04/14 01:03:06;;;;;;;9.97;5.37;;;11.30;99.90;;;;;;5034201;28;20529;-62
2023/04/14 01:05:33;;;;;;;11.93;5.87;;;11.30;99.90;;;;;;5033257;28;20430;-63
2023/04/14 01:08:01;;;;;;;8.27;5.13;;;11.20;99.90;;;;;;5033471;28;20457;-63
2023/04/14 01:10:39;;;;;;;7.53;4.77;;;11.20;99.90;;;;;;5033025;28;20504;-63
2023/04/14 01:13:32;;;;;;;6.60;4.20;;;11.20;99.90;;;;;;5033975;28;20459;-63
2023/04/14 01:16:01;;;;;;;6.23;3.90;;;11.20;99.90;;;;;;5033528;28;20590;-63
2023/04/14 01:18:36;;;;;;;6.30;4.30;;;11.20;99.90;;;;;;5033580;28;20426;-64
2023/04/14 01:21:06;;;;;;;5.20;3.90;;;11.20;99.90;;;;;;5033386;28;20623;-63
2023/04/14 01:23:39;;;;;;;6.80;4.03;;;11.20;99.90;;;;;;5033492;28;20421;-62
2023/04/14 01:26:19;;;;;;;9.03;5.17;;;11.20;99.90;;;;;;5033576;28;20463;-62
2023/04/14 01:29:18;;;;;;;7.57;4.83;;;11.20;99.90;;;;;;5033777;28;20480;-63
2023/04/14 01:31:48;;;;;;;8.33;5.00;;;11.20;99.90;;;;;;5033806;28;20492;-64
2023/04/14 01:34:22;;;;;;;7.50;4.40;;;11.10;99.90;;;;;;5034884;28;20445;-62
2023/04/14 01:36:55;;;;;;;8.60;4.50;;;11.10;99.90;;;;;;5034055;28;20519;-63
2023/04/14 01:39:26;;;;;;;6.80;3.73;;;11.10;99.90;;;;;;5033984;28;20425;-62
2023/04/14 01:41:57;;;;;;;11.97;5.30;;;11.10;99.90;;;;;;5033473;28;20456;-63
2023/04/14 01:44:25;;;;;;;5.97;3.93;;;11.00;99.90;;;;;;5032734;28;20460;-63
2023/04/14 01:46:59;;;;;;;9.23;5.90;;;11.00;99.90;;;;;;5033842;28;20440;-64
2023/04/14 01:49:29;;;;;;;8.50;5.53;;;11.10;99.90;;;;;;5033883;28;20523;-63
2023/04/14 01:51:56;;;;;;;17.37;8.57;;;11.00;99.90;;;;;;5033416;28;20444;-63
2023/04/14 01:54:24;;;;;;;6.70;4.87;;;11.00;99.90;;;;;;5035746;28;20475;-63
2023/04/14 01:56:51;;;;;;;6.40;4.00;;;11.00;99.90;;;;;;5036195;28;20476;-62
2023/04/14 01:59:22;;;;;;;7.03;4.40;;;11.00;99.90;;;;;;5037094;28;20467;-63
2023/04/14 02:01:50;;;;;;;5.63;3.20;;;11.00;99.90;;;;;;5037206;28;20475;-63
2023/04/14 02:04:21;;;;;;;6.20;3.97;;;11.10;99.90;;;;;;5036216;28;20476;-62
2023/04/14 02:06:49;;;;;;;9.20;3.93;;;11.00;99.90;;;;;;5036339;28;20902;-61
2023/04/14 02:09:17;;;;;;;7.00;3.70;;;11.00;99.90;;;;;;5035820;28;20535;-61
2023/04/14 02:11:46;;;;;;;7.43;3.57;;;11.00;99.90;;;;;;5036842;28;20437;-62
2023/04/14 02:14:13;;;;;;;5.83;3.17;;;11.00;99.90;;;;;;5036540;28;20536;-63
2023/04/14 02:16:41;;;;;;;5.33;3.90;;;11.00;99.90;;;;;;5036730;28;20460;-62
2023/04/14 02:19:09;;;;;;;4.47;3.20;;;11.00;99.90;;;;;;5036870;28;20445;-66
2023/04/14 02:21:38;;;;;;;4.20;3.50;;;10.90;99.90;;;;;;5037249;28;20588;-63
2023/04/14 02:24:06;;;;;;;5.13;3.90;;;10.90;99.90;;;;;;5037672;28;20444;-61
2023/04/14 02:26:35;;;;;;;14.83;3.90;;;10.90;99.90;;;;;;5037282;28;20440;-62
2023/04/14 02:29:09;;;;;;;4.13;3.60;;;10.90;99.90;;;;;;5036191;28;20492;-64
2023/04/14 02:31:42;;;;;;;6.03;3.70;;;10.90;99.90;;;;;;5036285;28;20441;-63
2023/04/14 02:34:11;;;;;;;4.90;3.43;;;10.90;99.90;;;;;;5036780;28;20465;-63
2023/04/14 02:36:42;;;;;;;6.17;3.93;;;10.90;99.90;;;;;;5035768;28;20476;-60
2023/04/14 02:39:16;;;;;;;9.33;4.33;;;10.90;99.90;;;;;;5036107;28;20973;-59
2023/04/14 02:41:45;;;;;;;9.70;4.27;;;10.90;99.90;;;;;;5036252;28;20425;-60
2023/04/14 02:44:19;;;;;;;4.43;3.30;;;10.90;99.90;;;;;;5037417;28;20453;-60
2023/04/14 02:46:53;;;;;;;6.20;3.77;;;10.90;99.90;;;;;;5037543;28;20447;-58
2023/04/14 02:49:21;;;;;;;4.50;3.33;;;10.80;99.90;;;;;;5037183;28;20472;-56
2023/04/14 02:51:51;;;;;;;5.20;3.90;;;10.90;99.90;;;;;;5037800;28;20406;-59
2023/04/14 02:54:20;;;;;;;6.50;3.70;;;10.90;99.90;;;;;;5036678;28;20437;-59
2023/04/14 02:56:48;;;;;;;4.13;3.30;;;10.90;99.90;;;;;;5035934;28;20469;-57
2023/04/14 02:59:15;;;;;;;5.23;3.33;;;10.80;99.90;;;;;;5035615;28;20437;-59
2023/04/14 03:01:43;;;;;;;3.63;2.90;;;10.80;99.90;;;;;;5034975;28;20484;-60
2023/04/14 03:04:11;;;;;;;6.10;3.87;;;10.80;99.90;;;;;;5034783;28;20429;-60
2023/04/14 03:06:39;;;;;;;6.93;3.10;;;10.80;99.90;;;;;;5035755;28;20469;-60
2023/04/14 03:09:08;;;;;;;4.97;3.70;;;10.80;99.90;;;;;;5035541;28;20484;-57
2023/04/14 03:11:36;;;;;;;5.77;3.27;;;10.80;99.90;;;;;;5034888;28;20460;-59
2023/04/14 03:14:03;;;;;;;4.97;3.60;;;10.90;99.90;;;;;;5035301;28;20435;-60
2023/04/14 03:16:33;;;;;;;5.13;3.20;;;10.80;99.90;;;;;;5035655;28;20446;-61
2023/04/14 03:19:01;;;;;;;2.60;2.40;;;10.90;99.90;;;;;;5035518;28;20429;-61
2023/04/14 03:21:29;;;;;;;4.63;3.07;;;10.80;99.90;;;;;;5035296;28;20495;-61
2023/04/14 03:23:58;;;;;;;6.00;3.17;;;10.80;99.90;;;;;;5034789;28;20808;-60
2023/04/14 03:26:32;;;;;;;4.40;3.40;;;10.70;99.90;;;;;;5034752;28;21043;-59
2023/04/14 03:29:00;;;;;;;5.20;3.70;;;10.70;99.90;;;;;;5035506;28;20492;-60
2023/04/14 03:31:33;;;;;;;6.17;3.53;;;10.70;99.90;;;;;;5035155;28;20441;-61
2023/04/14 03:34:03;;;;;;;6.70;3.60;;;10.70;99.90;;;;;;5035376;28;20525;-60
2023/04/14 03:36:31;;;;;;;3.23;2.93;;;10.70;99.90;;;;;;5035793;28;20425;-60
2023/04/14 03:39:01;;;;;;;10.50;2.90;;;10.70;99.90;;;;;;5036117;28;20444;-56
2023/04/14 03:41:31;;;;;;;5.50;3.57;;;10.70;99.90;;;;;;5035453;28;20496;-62
2023/04/14 03:43:58;;;;;;;6.10;3.77;;;10.70;99.90;;;;;;5036297;28;20436;-61
2023/04/14 03:46:27;;;;;;;4.70;3.53;;;10.70;99.90;;;;;;5034683;28;20516;-62
2023/04/14 03:48:55;;;;;;;11.20;4.17;;;10.70;99.90;;;;;;5034557;28;20457;-60
2023/04/14 03:51:25;;;;;;;5.57;3.40;;;10.70;99.90;;;;;;5034474;28;20495;-57
2023/04/14 03:53:55;;;;;;;6.07;3.93;;;10.70;99.90;;;;;;5035140;28;20878;-60
2023/04/14 03:56:23;;;;;;;6.40;3.60;;;10.70;99.90;;;;;;5034600;28;20449;-60
2023/04/14 03:58:54;;;;;;;5.10;3.27;;;10.70;99.90;;;;;;5034814;28;20445;-61
2023/04/14 04:01:24;;;;;;;8.10;5.40;;;10.70;99.90;;;;;;5034591;28;20457;-58
2023/04/14 04:03:52;;;;;;;5.37;3.20;;;10.70;99.90;;;;;;5034318;28;20469;-59
2023/04/14 04:06:20;;;;;;;4.70;3.20;;;10.70;99.90;;;;;;5034509;28;20453;-61
2023/04/14 04:08:49;;;;;;;7.17;3.37;;;10.70;99.90;;;;;;5035438;28;20499;-60
2023/04/14 04:11:17;;;;;;;5.07;3.60;;;10.70;99.90;;;;;;5034681;28;20516;-60
2023/04/14 04:13:47;;;;;;;14.50;4.30;;;10.70;99.90;;;;;;5033624;28;20487;-60
2023/04/14 04:16:16;;;;;;;7.60;3.87;;;10.70;99.90;;;;;;5033302;28;20441;-61
2023/04/14 04:18:47;;;;;;;5.93;3.70;;;10.70;99.90;;;;;;5034577;28;20429;-62
2023/04/14 04:21:16;;;;;;;8.10;3.40;;;10.70;99.90;;;;;;5035106;28;20505;-61
2023/04/14 04:23:48;;;;;;;8.60;4.10;;;10.70;99.90;;;;;;5034052;28;20468;-60
2023/04/14 04:26:15;;;;;;;5.17;3.40;;;10.70;99.90;;;;;;5033809;28;20421;-60
2023/04/14 04:28:46;;;;;;;4.83;3.53;;;10.70;99.90;;;;;;5033346;28;20520;-60
2023/04/14 04:31:19;;;;;;;4.90;3.40;;;10.70;99.90;;;;;;5034464;28;20493;-59
2023/04/14 04:33:49;;;;;;;5.00;3.40;;;10.70;99.90;;;;;;5034764;28;20433;-60
2023/04/14 04:36:17;;;;;;;3.80;3.00;;;10.70;99.90;;;;;;5034206;28;20453;-60
2023/04/14 04:38:44;;;;;;;6.37;3.37;;;10.70;99.90;;;;;;5034000;28;20465;-60
2023/04/14 04:41:21;;;;;;;4.10;2.80;;;10.70;99.90;;;;;;5034433;28;20457;-59
2023/04/14 04:43:48;;;;;;;4.60;3.20;;;10.70;99.90;;;;;;5034000;28;20441;-59
2023/04/14 04:46:36;;;;;;;8.90;2.90;;;10.70;99.90;;;;;;5034005;28;20445;-61
2023/04/14 04:49:03;;;;;;;3.43;2.90;;;10.70;99.90;;;;;;5033934;28;20425;-61
2023/04/14 04:51:30;;;;;;;5.17;4.33;;;10.70;99.90;;;;;;5033900;28;20477;-61
2023/04/14 04:53:57;;;;;;;7.47;3.80;;;10.70;99.90;;;;;;5033983;28;20477;-57
2023/04/14 04:56:25;;;;;;;5.53;3.03;;;10.70;99.90;;;;;;5034433;28;20433;-58
2023/04/14 04:58:51;;;;;;;6.10;4.13;;;10.70;99.90;;;;;;5034035;28;20475;-58
2023/04/14 05:01:20;;;;;;;7.53;3.43;;;10.70;99.90;;;;;;5033802;28;20437;-60
2023/04/14 05:03:47;;;;;;;4.60;3.07;;;10.70;99.90;;;;;;5033319;28;20461;-61
2023/04/14 05:06:14;;;;;;;7.30;3.27;;;10.70;99.90;;;;;;5033266;28;20440;-58
2023/04/14 05:08:41;;;;;;;4.93;3.40;;;10.70;99.90;;;;;;5033902;28;20456;-60
2023/04/14 05:11:07;;;;;;;4.60;3.50;;;10.70;99.90;;;;;;5034280;28;20564;-57
2023/04/14 05:13:34;;;;;;;4.47;3.40;;;10.70;99.90;;;;;;5034258;28;20449;-60
2023/04/14 05:16:04;;;;;;;4.53;3.57;;;10.70;99.90;;;;;;5033854;28;20457;-60
2023/04/14 05:18:33;;;;;;;5.63;3.17;;;10.70;99.90;;;;;;5033746;28;20429;-61
2023/04/14 05:21:03;;;;;;;9.47;3.20;;;10.70;99.90;;;;;;5033422;28;20470;-59
2023/04/14 05:23:32;;;;;;;3.67;2.80;;;10.70;99.90;;;;;;5033187;28;20438;-59
2023/04/14 05:25:59;;;;;;;4.07;3.67;;;10.70;99.90;;;;;;5034020;28;20500;-59
2023/04/14 05:28:26;;;;;;;3.20;2.90;;;10.70;99.90;;;;;;5034913;28;20930;-60
2023/04/14 05:30:53;;;;;;;4.00;3.60;;;10.70;99.90;;;;;;5037668;28;20516;-60
2023/04/14 05:33:20;;;;;;;5.30;3.30;;;10.70;99.90;;;;;;5037503;28;20445;-61
2023/04/14 05:35:49;;;;;;;6.10;3.60;;;10.70;99.90;;;;;;5038072;28;20441;-60
2023/04/14 05:38:16;;;;;;;4.47;3.80;;;10.80;99.90;;;;;;5037472;28;20441;-60
2023/04/14 05:40:44;;;;;;;12.67;3.30;;;10.80;99.90;;;;;;5036964;28;20452;-60
2023/04/14 05:43:11;;;;;;;5.57;3.90;;;10.80;99.90;;;;;;5036248;28;20469;-57
2023/04/14 05:45:38;;;;;;;4.87;3.30;;;10.80;99.90;;;;;;5037540;28;20444;-59
2023/04/14 05:48:05;;;;;;;7.90;3.10;;;10.80;99.90;;;;;;5037003;28;20429;-60
2023/04/14 05:50:32;;;;;;;4.80;3.40;;;10.80;99.90;;;;;;5037484;28;20508;-60
2023/04/14 05:53:01;;;;;;;4.97;3.53;;;10.80;99.90;;;;;;5037434;28;20433;-59
2023/04/14 05:55:28;;;;;;;8.60;3.50;;;10.70;99.90;;;;;;5036489;28;20456;-58
2023/04/14 05:57:55;;;;;;;5.07;3.70;;;10.80;99.90;;;;;;5036957;28;20433;-60
2023/04/14 06:00:23;;;;;;;11.83;3.80;;;10.70;99.90;;;;;;5036787;28;20469;-60
2023/04/14 06:02:51;;;;;;;5.50;3.90;;;10.70;99.90;;;;;;5036837;28;20913;-61
2023/04/14 06:05:18;;;;;;;7.40;3.97;;;10.70;99.90;;;;;;5036743;28;20473;-57
2023/04/14 06:07:45;;;;;;;6.90;4.00;;;10.70;99.90;;;;;;5036730;28;20455;-59
2023/04/14 06:10:14;;;;;;;8.10;4.20;;;10.70;99.90;;;;;;5036334;28;20536;-60
2023/04/14 06:12:41;;;;;;;3.67;3.20;;;10.70;99.90;;;;;;5036066;28;20417;-60
2023/04/14 06:15:08;;;;;;;5.23;3.97;;;10.60;99.90;;;;;;5036864;28;20441;-59
2023/04/14 06:17:35;;;;;;;8.20;4.03;;;10.60;99.90;;;;;;5036864;28;20487;-56
2023/04/14 06:20:03;;;;;;;4.90;3.93;;;10.60;99.90;;;;;;5036262;28;20469;-61
2023/04/14 06:22:30;;;;;;;7.43;4.40;;;10.60;99.90;;;;;;5036265;28;20468;-60
2023/04/14 06:24:57;;;;;;;5.93;3.57;;;10.60;99.90;;;;;;5036262;28;20445;-60
2023/04/14 06:27:25;;;;;;;7.93;4.00;;;10.60;99.90;;;;;;5036631;28;20506;-58
2023/04/14 06:29:53;;;;;;;6.07;3.97;;;10.70;99.90;;;;;;5036546;28;20488;-60
2023/04/14 06:32:20;;;;;;;8.10;4.43;;;10.70;99.90;;;;;;5035861;28;20457;-60
2023/04/14 06:34:47;;;;;;;6.47;4.60;;;10.70;99.90;;;;;;5037306;28;20560;-60
2023/04/14 06:37:15;;;;;;;7.20;3.37;;;10.70;99.90;;;;;;5037444;28;20471;-61
2023/04/14 06:39:42;;;;;;;10.03;4.90;;;10.80;99.90;;;;;;5037751;28;20496;-59
2023/04/14 06:42:11;;;;;;;7.63;4.30;;;10.80;99.90;;;;;;5038717;28;20434;-56
2023/04/14 06:44:42;;;;;;;7.73;4.30;;;10.80;99.90;;;;;;5038805;28;20452;-62
2023/04/14 06:47:09;;;;;;;7.47;4.80;;;10.90;99.90;;;;;;5038205;28;20414;-60
2023/04/14 06:49:37;;;;;;;4.23;3.80;;;10.90;99.90;;;;;;5036858;28;20445;-59
2023/04/14 06:52:05;;;;;;;6.37;4.70;;;10.90;99.90;;;;;;5036977;28;20503;-57
2023/04/14 06:54:33;;;;;;;7.20;4.50;;;10.90;99.90;;;;;;5037395;28;20465;-58
2023/04/14 06:57:01;;;;;;;10.40;5.03;;;10.90;99.90;;;;;;5036778;28;20449;-56
2023/04/14 06:59:28;;;;;;;9.77;4.90;;;10.90;99.90;;;;;;5036841;28;20455;-57
2023/04/14 07:01:57;;;;;;;6.50;4.00;;;11.00;99.90;;;;;;5036104;28;20465;-62
2023/04/14 07:04:24;;;;;;;8.70;4.90;;;10.40;99.90;;;;;;5035741;28;20458;-56
2023/04/14 07:06:52;;;;;;;6.70;4.17;;;11.00;99.90;;;;;;5035708;28;20460;-61
2023/04/14 07:09:19;;;;;;;12.50;4.63;;;11.00;99.90;;;;;;5036485;28;20442;-58
2023/04/14 07:11:46;;;;;;;12.03;6.03;;;11.10;99.90;;;;;;5035795;28;20495;-59
2023/04/14 07:14:14;;;;;;;7.57;5.33;;;11.10;99.90;;;;;;5035622;28;20434;-59
2023/04/14 07:16:41;;;;;;;9.03;4.57;;;11.10;99.90;;;;;;5035114;28;20441;-60
2023/04/14 07:19:09;;;;;;;9.43;5.17;;;11.20;99.90;;;;;;5034604;28;20476;-61
2023/04/14 07:21:36;;;;;;;8.17;4.40;;;11.30;99.90;;;;;;5035159;28;20441;-60
2023/04/14 07:24:04;;;;;;;5.63;4.67;;;11.30;99.90;;;;;;5035369;28;20469;-59
2023/04/14 07:26:31;;;;;;;6.00;4.63;;;11.20;99.90;;;;;;5035855;28;20480;-60
2023/04/14 07:28:58;;;;;;;8.00;4.67;;;11.30;99.90;;;;;;5035388;28;20485;-60
2023/04/14 07:31:25;;;;;;;8.60;3.70;;;11.30;99.90;;;;;;5035093;28;20484;-58
2023/04/14 07:33:55;;;;;;;7.50;4.90;;;11.20;99.90;;;;;;5035675;28;20480;-58
2023/04/14 07:36:23;;;;;;;5.80;4.20;;;11.20;99.90;;;;;;5035325;28;20460;-60
2023/04/14 07:38:50;;;;;;;6.43;4.43;;;11.20;99.90;;;;;;5035515;28;20565;-58
2023/04/14 07:41:20;;;;;;;7.80;5.27;;;11.20;99.90;;;;;;5035346;28;20485;-60
2023/04/14 07:43:47;;;;;;;7.10;4.53;;;11.30;99.90;;;;;;5035207;28;20449;-63
2023/04/14 07:46:14;;;;;;;8.17;4.60;;;11.30;99.90;;;;;;5033904;28;20468;-60
2023/04/14 07:48:41;;;;;;;6.30;5.10;;;11.30;99.90;;;;;;5034799;28;20480;-60
2023/04/14 07:51:08;;;;;;;8.20;4.40;;;11.30;99.90;;;;;;5035031;28;20515;-58
2023/04/14 07:53:41;;;;;;;9.93;4.23;;;11.30;99.90;;;;;;5034185;28;20501;-60
2023/04/14 07:56:08;;;;;;;11.37;5.97;;;11.30;99.90;;;;;;5035335;28;20406;-60
2023/04/14 07:58:35;;;;;;;23.23;13.33;;;11.20;99.90;;;;;;5050025;28;20448;-60
2023/04/14 08:01:03;;;;;;;7.30;5.20;;;11.20;99.90;;;;;;5054179;28;20459;-59
2023/04/14 08:03:30;;;;;;;6.07;4.67;;;11.10;99.90;;;;;;5054263;28;20482;-60
2023/04/14 08:05:57;;;;;;;8.87;4.73;;;11.00;99.90;;;;;;5050762;28;20468;-59
2023/04/14 08:08:24;;;;;;;8.33;5.17;;;11.00;99.90;;;;;;5034959;28;20469;-59
2023/04/14 08:10:54;;;;;;;7.40;5.40;;;11.00;99.90;;;;;;5034761;28;20473;-60
2023/04/14 08:13:24;;;;;;;6.20;4.57;;;11.00;99.90;;;;;;5034354;28;20555;-59
2023/04/14 08:15:51;;;;;;;6.87;4.50;;;10.90;99.90;;;;;;5034003;28;20426;-59
2023/04/14 08:18:19;;;;;;;9.37;4.50;;;11.00;99.90;;;;;;5036408;28;20445;-60
2023/04/14 08:20:46;;;;;;;4.73;3.90;;;11.00;99.90;;;;;;5054239;28;20514;-59
2023/04/14 08:23:13;;;;;;;8.00;4.00;;;10.90;99.90;;;;;;5054564;28;20436;-61
2023/04/14 08:25:41;;;;;;;6.30;3.87;;;11.00;99.90;;;;;;5054007;28;20476;-61
2023/04/14 08:28:12;;;;;;;3.70;3.30;;;11.00;99.90;;;;;;5054133;28;20440;-60
2023/04/14 08:30:40;;;;;;;4.47;3.47;;;10.90;99.90;;;;;;5051421;28;20460;-60
2023/04/14 08:33:07;;;;;;;5.40;3.70;;;10.90;99.90;;;;;;5054299;28;20455;-59
2023/04/14 08:35:35;;;;;;;13.30;3.10;;;10.90;99.90;;;;;;5053498;28;20439;-60
2023/04/14 08:38:02;;;;;;;4.43;2.70;;;10.90;99.90;;;;;;5053833;28;20475;-60
2023/04/14 08:40:36;;;;;;;4.20;3.30;;;10.90;99.90;;;;;;5052611;28;20440;-60
2023/04/14 08:43:03;;;;;;;3.63;2.63;;;10.80;99.90;;;;;;5033467;28;20440;-60
2023/04/14 08:45:32;;;;;;;8.93;4.00;;;10.70;99.90;;;;;;5033531;28;20460;-60
2023/04/14 08:48:00;;;;;;;6.73;3.20;;;10.70;99.90;;;;;;5033049;28;20475;-60
2023/04/14 08:50:32;;;;;;;3.60;2.80;;;10.70;99.90;;;;;;5047818;28;20443;-57
2023/04/14 08:53:02;;;;;;;4.83;3.10;;;10.70;99.90;;;;;;5053163;28;20544;-60
2023/04/14 08:55:32;;;;;;;4.13;3.50;;;10.60;99.90;;;;;;5053069;28;20508;-59
2023/04/14 08:58:00;;;;;;;5.70;2.63;;;10.50;99.90;;;;;;5053890;28;20460;-59
2023/04/14 09:00:28;;;;;;;5.57;2.40;;;10.60;99.90;;;;;;5053357;28;20748;-60
2023/04/14 09:02:57;;;;;;;7.13;3.73;;;10.60;99.90;;;;;;5056592;28;20523;-60
2023/04/14 09:05:24;;;;;;;4.93;2.73;;;10.60;99.90;;;;;;5057508;28;20430;-58
2023/04/14 09:07:52;;;;;;;6.50;3.10;;;10.60;99.90;;;;;;5047000;28;20475;-60
2023/04/14 09:10:20;;;;;;;3.90;3.40;;;10.60;99.90;;;;;;5057392;28;20440;-60
2023/04/14 09:12:48;;;;;;;3.63;3.20;;;10.60;99.90;;;;;;5057084;28;20545;-60
2023/04/14 09:15:16;;;;;;;4.97;3.10;;;10.60;99.90;;;;;;5057532;28;20439;-57
2023/04/14 09:17:44;;;;;;;5.43;3.60;;;10.60;99.90;;;;;;5057057;28;20440;-56
2023/04/14 09:20:14;;;;;;;4.20;3.20;;;10.70;99.90;;;;;;5057385;28;20432;-53
2023/04/14 09:22:41;;;;;;;4.53;3.03;;;10.70;99.90;;;;;;5057311;28;20413;-57
2023/04/14 09:25:10;;;;;;;5.70;3.97;;;10.60;99.90;;;;;;5057552;28;20439;-58
2023/04/14 09:27:37;;;;;;;6.47;3.50;;;10.60;99.90;;;;;;5057119;28;20456;-57
2023/04/14 09:30:07;;;;;;;5.83;3.13;;;10.70;99.90;;;;;;5057370;28;20456;-55
2023/04/14 09:32:34;;;;;;;3.70;3.10;;;10.60;99.90;;;;;;5057058;28;20491;-56
2023/04/14 09:35:05;;;;;;;9.57;3.77;;;10.60;99.90;;;;;;5057712;28;20477;-57
2023/04/14 09:37:43;;;;;;;5.53;3.40;;;10.60;99.90;;;;;;5057614;28;20436;-55
2023/04/14 09:40:26;;;;;;;8.67;3.27;;;10.70;99.90;;;;;;5057597;28;20428;-59
2023/04/14 09:42:53;;;;;;;5.30;3.87;;;10.80;99.90;;;;;;5035056;28;20452;-55
2023/04/14 09:45:21;;;;;;;6.30;4.00;;;10.70;99.90;;;;;;5029557;28;20449;-58
2023/04/14 09:47:48;;;;;;;6.50;4.67;;;10.80;99.90;;;;;;5036755;28;20450;-59
2023/04/14 09:50:15;;;;;;;4.77;4.03;;;10.80;99.90;;;;;;5045601;28;20468;-55
2023/04/14 09:52:47;;;;;;;5.03;4.27;;;10.80;99.90;;;;;;5057201;28;20486;-59
2023/04/14 09:55:15;;;;;;;10.20;5.00;;;10.80;99.90;;;;;;5057063;28;20482;-55
2023/04/14 09:57:43;;;;;;;5.53;4.10;;;10.80;99.90;;;;;;5056709;28;20444;-60
2023/04/14 10:00:20;;;;;;;8.07;5.10;;;10.80;99.90;;;;;;5057424;28;20502;-59
2023/04/14 10:02:51;;;;;;;5.27;4.77;;;10.80;99.90;;;;;;5045675;28;20468;-58
2023/04/14 10:05:20;;;;;;;10.30;4.83;;;10.80;99.90;;;;;;5042569;28;20515;-60
2023/04/14 10:07:49;;;;;;;5.67;4.27;;;10.80;99.90;;;;;;5055233;28;20452;-59
2023/04/14 10:10:16;;;;;;;7.53;4.80;;;10.80;99.90;;;;;;5040168;28;20457;-56
2023/04/14 10:12:44;;;;;;;7.57;5.13;;;10.80;99.90;;;;;;5038044;28;20464;-60
2023/04/14 10:15:13;;;;;;;7.67;4.70;;;10.80;99.90;;;;;;5037420;28;20445;-59
2023/04/14 10:17:41;;;;;;;7.03;4.83;;;10.80;99.90;;;;;;5038062;28;20472;-60
2023/04/14 10:20:09;;;;;;;5.47;4.03;;;10.80;99.90;;;;;;5039796;28;20510;-55
2023/04/14 10:22:36;;;;;;;6.00;3.97;;;10.80;99.90;;;;;;5050769;28;20444;-55
2023/04/14 10:25:06;;;;;;;17.27;7.27;;;10.70;99.90;;;;;;5041805;28;20468;-59
2023/04/14 10:27:34;;;;;;;16.27;9.73;;;10.70;99.90;;;;;;5037432;28;20452;-60
2023/04/14 10:30:02;;;;;;;12.13;7.70;;;10.70;99.90;;;;;;5032003;28;21126;-60
2023/04/14 10:32:33;;;;;;;8.90;4.30;;;10.50;99.90;;;;;;5019742;28;20957;-60
2023/04/14 10:35:05;;;;;;;4.90;3.70;;;10.40;99.90;;;;;;5019204;28;20507;-59
2023/04/14 10:37:32;;;;;;;4.17;3.77;;;10.40;99.90;;;;;;5019518;28;20434;-58
2023/04/14 10:40:03;;;;;;;6.20;4.47;;;10.40;99.90;;;;;;5019470;28;20539;-59
2023/04/14 10:42:53;;;;;;;6.13;4.37;;;10.30;99.90;;;;;;5020096;28;20445;-61
2023/04/14 10:45:20;;;;;;;4.47;3.70;;;10.30;99.90;;;;;;5020577;28;20513;-60
2023/04/14 10:47:48;;;;;;;5.83;3.97;;;10.30;99.90;;;;;;5019201;28;20453;-58
2023/04/14 10:50:18;;;;;;;8.17;4.17;;;10.30;99.90;;;;;;5021212;28;20459;-59
2023/04/14 10:52:53;;;;;;;7.03;3.80;;;10.30;99.90;;;;;;5037348;28;20464;-58
2023/04/14 10:55:22;;;;;;;7.33;4.83;;;10.20;99.90;;;;;;5038958;28;20451;-59
2023/04/14 10:57:49;;;;;;;9.03;4.80;;;10.20;99.90;;;;;;5038506;28;20456;-60
2023/04/14 11:00:25;;;;;;;9.30;4.60;;;10.10;99.90;;;;;;5038558;28;20470;-61
2023/04/14 11:02:57;;;;;;;5.73;4.50;;;10.10;99.90;;;;;;5039002;28;20904;-59
2023/04/14 11:05:24;;;;;;;6.10;3.97;;;10.00;99.90;;;;;;5038821;28;20479;-60
2023/04/14 11:07:55;;;;;;;4.10;3.20;;;10.10;99.90;;;;;;5038616;28;20471;-60
2023/04/14 11:10:27;;;;;;;7.57;4.70;;;10.10;99.90;;;;;;5038477;28;20931;-59
2023/04/14 11:12:56;;;;;;;4.33;3.50;;;10.10;99.90;;;;;;5038591;28;20587;-59
2023/04/14 11:15:24;;;;;;;6.53;4.67;;;10.10;99.90;;;;;;5038653;28;20474;-61
2023/04/14 11:17:53;;;;;;;5.30;4.20;;;10.10;99.90;;;;;;5038073;28;20448;-60
2023/04/14 11:20:21;;;;;;;7.83;4.93;;;10.00;99.90;;;;;;5038799;28;20516;-60
2023/04/14 11:22:50;;;;;;;6.30;4.20;;;10.10;99.90;;;;;;5038185;28;20653;-58
2023/04/14 11:25:17;;;;;;;5.30;3.63;;;10.10;99.90;;;;;;5037651;28;20826;-58
2023/04/14 11:27:45;;;;;;;3.43;3.10;;;10.10;99.90;;;;;;5035371;28;20629;-59
2023/04/14 11:30:15;;;;;;;10.50;4.10;;;10.00;99.90;;;;;;5035497;28;20513;-60
2023/04/14 11:32:47;;;;;;;5.63;3.57;;;10.00;99.90;;;;;;5039194;28;20492;-60
2023/04/14 11:35:15;;;;;;;7.13;4.30;;;10.00;99.90;;;;;;5038107;28;20449;-56
2023/04/14 11:37:42;;;;;;;5.63;4.40;;;10.00;99.90;;;;;;5040265;28;20579;-58
2023/04/14 11:40:12;;;;;;;6.00;4.73;;;10.00;99.90;;;;;;5037873;28;20535;-59
2023/04/14 11:42:39;;;;;;;6.30;4.40;;;10.00;99.90;;;;;;5038011;28;20492;-57
2023/04/14 11:45:07;;;;;;;6.50;4.67;;;10.10;99.90;;;;;;5037798;28;20483;-58
2023/04/14 11:47:34;;;;;;;8.50;4.47;;;10.10;99.90;;;;;;5038404;28;20471;-60
2023/04/14 11:50:04;;;;;;;6.87;4.07;;;10.10;99.90;;;;;;5038099;28;20444;-60
2023/04/14 11:52:33;;;;;;;5.50;3.70;;;10.00;99.90;;;;;;5038011;28;20488;-60
2023/04/14 11:55:01;;;;;;;4.70;3.40;;;10.00;99.90;;;;;;5037406;28;20483;-60
2023/04/14 11:57:28;;;;;;;7.10;4.37;;;10.00;99.90;;;;;;5036828;28;20936;-56
2023/04/14 11:59:56;;;;;;;7.20;3.97;;;10.00;99.90;;;;;;5039395;28;20444;-60
2023/04/14 12:02:23;;;;;;;19.63;6.10;;;10.00;99.90;;;;;;5038760;28;20468;-57
2023/04/14 12:04:52;;;;;;;5.30;4.20;;;10.00;99.90;;;;;;5037664;28;20487;-61
2023/04/14 12:07:22;;;;;;;5.73;4.03;;;10.00;99.90;;;;;;5037632;28;20468;-62
2023/04/14 12:09:51;;;;;;;6.63;4.27;;;9.90;99.90;;;;;;5037309;28;20510;-60
2023/04/14 12:12:19;;;;;;;4.03;2.93;;;9.90;99.90;;;;;;5037478;28;20829;-57
2023/04/14 12:14:48;;;;;;;8.40;4.80;;;9.80;99.90;;;;;;5037813;28;20510;-59
2023/04/14 12:17:16;;;;;;;5.47;3.70;;;9.80;99.90;;;;;;5037425;28;20444;-59
2023/04/14 12:19:43;;;;;;;4.20;3.63;;;9.90;99.90;;;;;;5037088;28;20482;-58
2023/04/14 12:22:10;;;;;;;5.13;3.43;;;9.90;99.90;;;;;;5037172;28;20514;-57
2023/04/14 12:24:40;;;;;;;6.73;4.47;;;9.90;99.90;;;;;;5037663;28;20486;-57
2023/04/14 12:27:08;;;;;;;5.17;4.10;;;9.80;99.90;;;;;;5036547;28;20494;-56
2023/04/14 12:29:37;;;;;;;4.50;3.07;;;9.80;99.90;;;;;;5037422;28;20527;-54
2023/04/14 12:32:10;;;;;;;7.37;3.63;;;9.70;99.90;;;;;;5037419;28;20979;-57
2023/04/14 12:34:37;;;;;;;4.80;3.60;;;9.70;99.90;;;;;;5037291;28;20440;-57
2023/04/14 12:37:08;;;;;;;12.83;4.93;;;9.70;99.90;;;;;;5037106;28;20959;-57
2023/04/14 12:39:50;;;;;;;6.27;4.20;;;9.60;99.90;;;;;;5034004;28;20445;-56
2023/04/14 12:42:17;;;;;;;5.93;3.87;;;9.60;99.90;;;;;;5020513;28;20513;-58
2023/04/14 12:44:54;;;;;;;7.37;3.50;;;9.60;99.90;;;;;;5027386;28;20471;-55
2023/04/14 12:47:27;;;;;;;4.87;3.37;;;9.60;99.90;;;;;;5040339;28;20448;-55
2023/04/14 12:49:55;;;;;;;3.77;2.70;;;9.70;99.90;;;;;;5044616;28;20483;-58
2023/04/14 12:52:37;;;;;;;6.60;3.67;;;9.70;99.90;;;;;;5047825;28;20506;-55
2023/04/14 12:55:06;;;;;;;6.30;3.87;;;9.70;99.90;;;;;;5046042;28;20491;-60